sensor_id;sensor_type;location;lat;lon;timestamp;pressure;altitude;pressure_sealevel;temperature;humidity
550;BME280;20066;48.764;9.176;2023-08-24T00:01:44;98383.88;;;25.68;50.15
550;BME280;20066;48.764;9.176;2023-08-24T00:04:14;98390.84;;;25.63;49.83
550;BME280;20066;48.764;9.176;2023-08-24T00:06:41;98374.34;;;25.49;50.96
550;BME280;20066;48.764;9.176;2023-08-24T00:09:09;98380.56;;;25.44;50.50
550;BME280;20066;48.764;9.176;2023-08-24T00:11:38;98376.66;;;25.36;50.74
550;BME280;20066;48.764;9.176;2023-08-24T00:14:06;98381.13;;;25.18;51.22
550;BME280;20066;48.764;9.176;2023-08-24T00:16:34;98385.53;;;24.96;51.83
550;BME280;20066;48.764;9.176;2023-08-24T00:19:02;98391.06;;;25.30;51.22
550;BME280;20066;48.764;9.176;2023-08-24T00:21:32;98382.53;;;25.43;50.90
550;BME280;20066;48.764;9.176;2023-08-24T00:24:00;98383.31;;;25.29;51.33
550;BME280;20066;48.764;9.176;2023-08-24T00:26:28;98367.69;;;25.06;51.19
550;BME280;20066;48.764;9.176;2023-08-24T00:28:56;98371.41;;;24.88;51.86
550;BME280;20066;48.764;9.176;2023-08-24T00:31:24;98368.06;;;25.13;52.03
550;BME280;20066;48.764;9.176;2023-08-24T00:33:51;98366.78;;;25.29;51.46
550;BME280;20066;48.764;9.176;2023-08-24T00:36:20;98366.16;;;25.40;51.52
550;BME280;20066;48.764;9.176;2023-08-24T00:38:51;98356.56;;;25.00;50.96
550;BME280;20066;48.764;9.176;2023-08-24T00:41:20;98357.22;;;25.10;51.78
550;BME280;20066;48.764;9.176;2023-08-24T00:43:49;98349.13;;;25.21;51.76
550;BME280;20066;48.764;9.176;2023-08-24T00:46:18;98343.28;;;25.13;51.23
550;BME280;20066;48.764;9.176;2023-08-24T00:48:47;98339.69;;;24.92;51.94
550;BME280;20066;48.764;9.176;2023-08-24T00:51:16;98344.16;;;24.75;52.80
550;BME280;20066;48.764;9.176;2023-08-24T00:53:45;98350.78;;;24.69;52.70
550;BME280;20066;48.764;9.176;2023-08-24T00:56:15;98349.50;;;24.26;53.70
550;BME280;20066;48.764;9.176;2023-08-24T00:58:44;98346.47;;;24.24;53.33
550;BME280;20066;48.764;9.176;2023-08-24T01:01:14;98348.88;;;24.45;53.26
550;BME280;20066;48.764;9.176;2023-08-24T01:03:42;98333.72;;;24.50;52.44
550;BME280;20066;48.764;9.176;2023-08-24T01:06:10;98330.09;;;24.59;52.90
550;BME280;20066;48.764;9.176;2023-08-24T01:08:38;98338.34;;;24.73;52.66
550;BME280;20066;48.764;9.176;2023-08-24T01:11:11;98344.50;;;24.39;53.06
550;BME280;20066;48.764;9.176;2023-08-24T01:13:46;98336.06;;;24.42;53.27
550;BME280;20066;48.764;9.176;2023-08-24T01:16:20;98335.53;;;24.14;53.31
550;BME280;20066;48.764;9.176;2023-08-24T01:18:54;98335.03;;;24.01;54.09
550;BME280;20066;48.764;9.176;2023-08-24T01:21:23;98334.94;;;23.72;54.75
550;BME280;20066;48.764;9.176;2023-08-24T01:24:01;98334.94;;;24.34;53.96
550;BME280;20066;48.764;9.176;2023-08-24T01:26:33;98336.94;;;23.38;55.57
550;BME280;20066;48.764;9.176;2023-08-24T01:29:01;98331.41;;;24.19;53.81
550;BME280;20066;48.764;9.176;2023-08-24T01:31:30;98325.53;;;24.26;53.75
550;BME280;20066;48.764;9.176;2023-08-24T01:33:58;98317.00;;;24.53;53.33
550;BME280;20066;48.764;9.176;2023-08-24T01:36:27;98317.09;;;24.44;53.29
550;BME280;20066;48.764;9.176;2023-08-24T01:39:02;98317.84;;;24.60;53.44
550;BME280;20066;48.764;9.176;2023-08-24T01:41:36;98320.56;;;24.15;54.24
550;BME280;20066;48.764;9.176;2023-08-24T01:44:06;98316.16;;;24.33;54.30
550;BME280;20066;48.764;9.176;2023-08-24T01:46:34;98320.72;;;24.65;53.44
550;BME280;20066;48.764;9.176;2023-08-24T01:49:04;98315.00;;;24.54;52.92
550;BME280;20066;48.764;9.176;2023-08-24T01:51:33;98317.00;;;24.68;52.82
550;BME280;20066;48.764;9.176;2023-08-24T01:54:02;98311.97;;;24.67;53.00
550;BME280;20066;48.764;9.176;2023-08-24T01:56:30;98312.63;;;24.47;52.93
550;BME280;20066;48.764;9.176;2023-08-24T01:59:00;98316.50;;;24.70;53.26
550;BME280;20066;48.764;9.176;2023-08-24T02:01:27;98316.03;;;24.71;52.99
550;BME280;20066;48.764;9.176;2023-08-24T02:03:56;98312.63;;;24.62;53.50
550;BME280;20066;48.764;9.176;2023-08-24T02:06:27;98318.97;;;24.68;53.31
550;BME280;20066;48.764;9.176;2023-08-24T02:08:56;98321.25;;;24.40;53.96
550;BME280;20066;48.764;9.176;2023-08-24T02:11:24;98320.34;;;24.43;53.86
550;BME280;20066;48.764;9.176;2023-08-24T02:13:52;98333.13;;;24.61;53.65
550;BME280;20066;48.764;9.176;2023-08-24T02:16:21;98327.84;;;24.04;54.67
550;BME280;20066;48.764;9.176;2023-08-24T02:18:49;98327.56;;;22.88;58.09
550;BME280;20066;48.764;9.176;2023-08-24T02:21:17;98318.25;;;22.25;60.26
550;BME280;20066;48.764;9.176;2023-08-24T02:23:45;98320.00;;;22.65;59.70
550;BME280;20066;48.764;9.176;2023-08-24T02:26:13;98318.16;;;23.46;56.77
550;BME280;20066;48.764;9.176;2023-08-24T02:28:41;98332.25;;;23.87;56.14
550;BME280;20066;48.764;9.176;2023-08-24T02:31:09;98328.59;;;23.66;56.31
550;BME280;20066;48.764;9.176;2023-08-24T02:33:38;98325.31;;;24.15;55.00
550;BME280;20066;48.764;9.176;2023-08-24T02:36:06;98315.28;;;24.27;54.67
550;BME280;20066;48.764;9.176;2023-08-24T02:38:34;98309.97;;;24.23;54.54
550;BME280;20066;48.764;9.176;2023-08-24T02:41:03;98319.66;;;24.33;54.44
550;BME280;20066;48.764;9.176;2023-08-24T02:43:31;98316.88;;;24.18;55.21
550;BME280;20066;48.764;9.176;2023-08-24T02:46:00;98315.00;;;24.39;54.58
550;BME280;20066;48.764;9.176;2023-08-24T02:48:30;98320.38;;;23.80;55.35
550;BME280;20066;48.764;9.176;2023-08-24T02:51:00;98318.25;;;23.99;54.77
550;BME280;20066;48.764;9.176;2023-08-24T02:53:29;98311.34;;;24.04;54.63
550;BME280;20066;48.764;9.176;2023-08-24T02:55:57;98311.72;;;23.97;55.20
550;BME280;20066;48.764;9.176;2023-08-24T02:58:25;98309.72;;;24.36;54.51
550;BME280;20066;48.764;9.176;2023-08-24T03:00:53;98304.28;;;24.12;54.73
550;BME280;20066;48.764;9.176;2023-08-24T03:03:23;98298.97;;;24.23;54.41
550;BME280;20066;48.764;9.176;2023-08-24T03:05:54;98303.66;;;24.08;54.42
550;BME280;20066;48.764;9.176;2023-08-24T03:08:24;98304.75;;;24.10;55.15
550;BME280;20066;48.764;9.176;2023-08-24T03:10:52;98305.81;;;24.28;54.66
550;BME280;20066;48.764;9.176;2023-08-24T03:13:20;98304.47;;;23.85;54.92
550;BME280;20066;48.764;9.176;2023-08-24T03:15:48;98298.06;;;24.02;55.32
550;BME280;20066;48.764;9.176;2023-08-24T03:18:17;98296.59;;;24.16;55.18
550;BME280;20066;48.764;9.176;2023-08-24T03:20:46;98291.47;;;24.38;54.48
550;BME280;20066;48.764;9.176;2023-08-24T03:23:14;98293.00;;;24.25;54.54
550;BME280;20066;48.764;9.176;2023-08-24T03:25:44;98290.81;;;24.29;54.48
550;BME280;20066;48.764;9.176;2023-08-24T03:28:12;98290.16;;;24.19;54.70
550;BME280;20066;48.764;9.176;2023-08-24T03:30:47;98296.59;;;24.16;54.95
550;BME280;20066;48.764;9.176;2023-08-24T03:33:15;98295.75;;;23.38;56.58
550;BME280;20066;48.764;9.176;2023-08-24T03:35:43;98295.69;;;23.95;55.52
550;BME280;20066;48.764;9.176;2023-08-24T03:38:11;98290.00;;;23.03;57.75
550;BME280;20066;48.764;9.176;2023-08-24T03:40:39;98293.28;;;23.73;56.52
550;BME280;20066;48.764;9.176;2023-08-24T03:43:09;98288.28;;;24.01;55.91
550;BME280;20066;48.764;9.176;2023-08-24T03:45:37;98281.91;;;24.19;54.85
550;BME280;20066;48.764;9.176;2023-08-24T03:48:05;98272.81;;;22.94;57.94
550;BME280;20066;48.764;9.176;2023-08-24T03:50:33;98268.25;;;22.91;58.01
550;BME280;20066;48.764;9.176;2023-08-24T03:53:02;98268.16;;;23.66;56.89
550;BME280;20066;48.764;9.176;2023-08-24T03:55:30;98255.28;;;23.87;55.92
550;BME280;20066;48.764;9.176;2023-08-24T03:57:59;98258.69;;;23.43;57.25
550;BME280;20066;48.764;9.176;2023-08-24T04:00:28;98250.72;;;23.45;56.58
550;BME280;20066;48.764;9.176;2023-08-24T04:02:57;98251.00;;;23.71;55.97
550;BME280;20066;48.764;9.176;2023-08-24T04:05:25;98255.03;;;23.99;55.24
550;BME280;20066;48.764;9.176;2023-08-24T04:07:54;98253.56;;;23.74;55.53
550;BME280;20066;48.764;9.176;2023-08-24T04:10:22;98242.94;;;23.67;56.29
550;BME280;20066;48.764;9.176;2023-08-24T04:12:50;98241.38;;;23.52;55.99
550;BME280;20066;48.764;9.176;2023-08-24T04:15:18;98232.75;;;23.97;55.20
550;BME280;20066;48.764;9.176;2023-08-24T04:17:47;98242.63;;;24.04;55.11
550;BME280;20066;48.764;9.176;2023-08-24T04:20:16;98231.63;;;23.89;55.88
550;BME280;20066;48.764;9.176;2023-08-24T04:22:43;98234.91;;;23.78;56.15
550;BME280;20066;48.764;9.176;2023-08-24T04:25:11;98236.16;;;24.07;54.66
550;BME280;20066;48.764;9.176;2023-08-24T04:27:39;98239.28;;;24.00;55.29
550;BME280;20066;48.764;9.176;2023-08-24T04:30:08;98237.44;;;24.21;54.74
550;BME280;20066;48.764;9.176;2023-08-24T04:32:39;98237.19;;;23.80;55.28
550;BME280;20066;48.764;9.176;2023-08-24T04:35:08;98229.84;;;24.15;55.07
550;BME280;20066;48.764;9.176;2023-08-24T04:37:37;98226.91;;;24.48;54.59
550;BME280;20066;48.764;9.176;2023-08-24T04:40:06;98220.81;;;24.44;54.43
550;BME280;20066;48.764;9.176;2023-08-24T04:42:34;98215.13;;;24.48;54.64
550;BME280;20066;48.764;9.176;2023-08-24T04:45:03;98213.28;;;24.60;54.22
550;BME280;20066;48.764;9.176;2023-08-24T04:47:30;98216.03;;;24.60;54.11
550;BME280;20066;48.764;9.176;2023-08-24T04:49:58;98215.91;;;24.34;53.90
550;BME280;20066;48.764;9.176;2023-08-24T04:52:28;98213.16;;;24.04;55.03
550;BME280;20066;48.764;9.176;2023-08-24T04:54:56;98221.22;;;24.23;54.77
550;BME280;20066;48.764;9.176;2023-08-24T04:57:23;98226.69;;;24.37;54.21
550;BME280;20066;48.764;9.176;2023-08-24T04:59:51;98230.41;;;24.05;55.13
550;BME280;20066;48.764;9.176;2023-08-24T05:02:19;98231.06;;;24.14;54.90
550;BME280;20066;48.764;9.176;2023-08-24T05:04:47;98230.13;;;23.50;56.67
550;BME280;20066;48.764;9.176;2023-08-24T05:07:15;98228.03;;;23.59;55.79
550;BME280;20066;48.764;9.176;2023-08-24T05:09:45;98227.34;;;23.88;56.48
550;BME280;20066;48.764;9.176;2023-08-24T05:12:13;98218.81;;;24.01;56.22
550;BME280;20066;48.764;9.176;2023-08-24T05:14:41;98215.16;;;24.33;55.23
550;BME280;20066;48.764;9.176;2023-08-24T05:17:09;98208.22;;;24.38;55.07
550;BME280;20066;48.764;9.176;2023-08-24T05:19:37;98195.78;;;24.42;54.04
550;BME280;20066;48.764;9.176;2023-08-24T05:22:04;98200.97;;;24.55;54.59
550;BME280;20066;48.764;9.176;2023-08-24T05:24:32;98194.69;;;24.69;54.24
550;BME280;20066;48.764;9.176;2023-08-24T05:27:01;98192.88;;;24.81;53.85
550;BME280;20066;48.764;9.176;2023-08-24T05:29:29;98194.94;;;24.86;53.22
550;BME280;20066;48.764;9.176;2023-08-24T05:31:57;98187.44;;;24.86;53.59
550;BME280;20066;48.764;9.176;2023-08-24T05:34:25;98182.41;;;24.85;53.98
550;BME280;20066;48.764;9.176;2023-08-24T05:36:53;98182.09;;;24.98;53.18
550;BME280;20066;48.764;9.176;2023-08-24T05:39:21;98175.97;;;24.88;53.39
550;BME280;20066;48.764;9.176;2023-08-24T05:41:50;98171.97;;;24.89;53.51
550;BME280;20066;48.764;9.176;2023-08-24T05:44:20;98176.59;;;24.98;53.82
550;BME280;20066;48.764;9.176;2023-08-24T05:46:49;98173.44;;;24.70;53.69
550;BME280;20066;48.764;9.176;2023-08-24T05:49:17;98174.44;;;24.87;53.60
550;BME280;20066;48.764;9.176;2023-08-24T05:51:45;98170.03;;;24.60;54.07
550;BME280;20066;48.764;9.176;2023-08-24T05:54:12;98176.03;;;25.14;53.75
550;BME280;20066;48.764;9.176;2023-08-24T05:56:45;98174.03;;;25.14;52.89
550;BME280;20066;48.764;9.176;2023-08-24T05:59:13;98178.50;;;25.52;51.59
550;BME280;20066;48.764;9.176;2023-08-24T06:01:42;98168.97;;;25.74;50.90
550;BME280;20066;48.764;9.176;2023-08-24T06:04:10;98173.06;;;25.58;50.54
550;BME280;20066;48.764;9.176;2023-08-24T06:06:38;98173.34;;;25.60;51.29
550;BME280;20066;48.764;9.176;2023-08-24T06:09:06;98176.31;;;25.56;50.32
550;BME280;20066;48.764;9.176;2023-08-24T06:11:36;98176.19;;;25.05;51.80
550;BME280;20066;48.764;9.176;2023-08-24T06:14:04;98182.97;;;24.54;51.99
550;BME280;20066;48.764;9.176;2023-08-24T06:16:32;98175.81;;;24.62;52.94
550;BME280;20066;48.764;9.176;2023-08-24T06:19:01;98179.00;;;25.51;50.77
550;BME280;20066;48.764;9.176;2023-08-24T06:21:30;98185.06;;;25.55;51.69
550;BME280;20066;48.764;9.176;2023-08-24T06:23:57;98188.59;;;25.81;50.31
550;BME280;20066;48.764;9.176;2023-08-24T06:26:27;98184.91;;;25.90;49.86
550;BME280;20066;48.764;9.176;2023-08-24T06:28:55;98190.38;;;25.58;49.90
550;BME280;20066;48.764;9.176;2023-08-24T06:31:23;98195.13;;;25.84;49.61
550;BME280;20066;48.764;9.176;2023-08-24T06:33:51;98194.59;;;25.80;49.95
550;BME280;20066;48.764;9.176;2023-08-24T06:36:20;98204.91;;;25.59;50.31
550;BME280;20066;48.764;9.176;2023-08-24T06:38:48;98197.38;;;26.05;50.21
550;BME280;20066;48.764;9.176;2023-08-24T06:41:16;98210.31;;;25.33;50.29
550;BME280;20066;48.764;9.176;2023-08-24T06:43:44;98220.63;;;25.79;50.39
550;BME280;20066;48.764;9.176;2023-08-24T06:46:12;98223.97;;;26.08;49.41
550;BME280;20066;48.764;9.176;2023-08-24T06:48:40;98235.53;;;26.13;49.61
550;BME280;20066;48.764;9.176;2023-08-24T06:51:09;98248.03;;;26.08;49.86
550;BME280;20066;48.764;9.176;2023-08-24T06:53:39;98255.72;;;26.30;48.80
550;BME280;20066;48.764;9.176;2023-08-24T06:56:08;98278.56;;;25.84;49.68
550;BME280;20066;48.764;9.176;2023-08-24T06:58:37;98279.72;;;25.52;50.94
550;BME280;20066;48.764;9.176;2023-08-24T07:01:05;98283.06;;;25.61;50.13
550;BME280;20066;48.764;9.176;2023-08-24T07:03:34;98280.13;;;25.30;51.04
550;BME280;20066;48.764;9.176;2023-08-24T07:06:01;98280.00;;;24.40;53.52
550;BME280;20066;48.764;9.176;2023-08-24T07:08:30;98264.06;;;24.73;52.95
550;BME280;20066;48.764;9.176;2023-08-24T07:11:03;98243.97;;;23.70;55.95
550;BME280;20066;48.764;9.176;2023-08-24T07:13:30;98237.34;;;23.62;56.17
550;BME280;20066;48.764;9.176;2023-08-24T07:15:58;98224.31;;;24.45;54.30
550;BME280;20066;48.764;9.176;2023-08-24T07:18:26;98229.28;;;25.46;51.17
550;BME280;20066;48.764;9.176;2023-08-24T07:20:54;98225.72;;;26.06;50.04
550;BME280;20066;48.764;9.176;2023-08-24T07:23:22;98213.25;;;26.16;49.86
550;BME280;20066;48.764;9.176;2023-08-24T07:25:50;98201.03;;;25.97;50.23
550;BME280;20066;48.764;9.176;2023-08-24T07:28:19;98210.00;;;26.18;49.72
550;BME280;20066;48.764;9.176;2023-08-24T07:30:47;98210.09;;;26.29;49.48
550;BME280;20066;48.764;9.176;2023-08-24T07:33:15;98209.16;;;25.19;52.22
550;BME280;20066;48.764;9.176;2023-08-24T07:35:43;98206.56;;;25.51;51.71
550;BME280;20066;48.764;9.176;2023-08-24T07:38:11;98208.66;;;25.61;51.47
550;BME280;20066;48.764;9.176;2023-08-24T07:40:39;98219.88;;;26.30;50.82
550;BME280;20066;48.764;9.176;2023-08-24T07:43:07;98222.63;;;25.38;51.89
550;BME280;20066;48.764;9.176;2023-08-24T07:45:36;98215.94;;;26.36;51.38
550;BME280;20066;48.764;9.176;2023-08-24T07:48:05;98218.72;;;26.73;48.45
550;BME280;20066;48.764;9.176;2023-08-24T07:50:33;98209.84;;;26.64;48.52
550;BME280;20066;48.764;9.176;2023-08-24T07:53:05;98215.03;;;26.51;50.50
550;BME280;20066;48.764;9.176;2023-08-24T07:55:38;98221.38;;;26.62;48.52
550;BME280;20066;48.764;9.176;2023-08-24T07:58:06;98222.13;;;26.94;48.10
550;BME280;20066;48.764;9.176;2023-08-24T08:00:33;98223.63;;;27.43;47.52
550;BME280;20066;48.764;9.176;2023-08-24T08:03:03;98226.09;;;28.34;44.95
550;BME280;20066;48.764;9.176;2023-08-24T08:05:31;98226.00;;;29.18;43.62
550;BME280;20066;48.764;9.176;2023-08-24T08:07:59;98225.56;;;28.02;45.08
550;BME280;20066;48.764;9.176;2023-08-24T08:10:27;98233.94;;;29.60;42.35
550;BME280;20066;48.764;9.176;2023-08-24T08:12:55;98245.47;;;28.28;45.26
550;BME280;20066;48.764;9.176;2023-08-24T08:15:23;98240.72;;;28.68;44.03
550;BME280;20066;48.764;9.176;2023-08-24T08:17:51;98240.09;;;26.78;47.54
550;BME280;20066;48.764;9.176;2023-08-24T08:20:22;98238.19;;;27.38;46.39
550;BME280;20066;48.764;9.176;2023-08-24T08:22:50;98226.44;;;27.54;45.38
550;BME280;20066;48.764;9.176;2023-08-24T08:25:18;98225.84;;;28.32;44.10
550;BME280;20066;48.764;9.176;2023-08-24T08:27:49;98218.66;;;29.31;43.41
550;BME280;20066;48.764;9.176;2023-08-24T08:30:18;98218.25;;;29.68;41.27
550;BME280;20066;48.764;9.176;2023-08-24T08:32:47;98217.31;;;29.55;41.19
550;BME280;20066;48.764;9.176;2023-08-24T08:35:15;98222.50;;;29.12;42.07
550;BME280;20066;48.764;9.176;2023-08-24T08:37:44;98217.53;;;28.77;43.86
550;BME280;20066;48.764;9.176;2023-08-24T08:40:12;98222.72;;;30.53;41.21
550;BME280;20066;48.764;9.176;2023-08-24T08:45:18;98229.66;;;31.82;37.41
550;BME280;20066;48.764;9.176;2023-08-24T08:47:48;98228.66;;;29.51;40.85
550;BME280;20066;48.764;9.176;2023-08-24T08:50:17;98229.47;;;29.87;40.11
550;BME280;20066;48.764;9.176;2023-08-24T08:52:46;98222.44;;;29.28;41.14
550;BME280;20066;48.764;9.176;2023-08-24T08:55:14;98215.09;;;29.89;39.52
550;BME280;20066;48.764;9.176;2023-08-24T08:57:47;98215.13;;;30.54;38.61
550;BME280;20066;48.764;9.176;2023-08-24T09:00:17;98216.06;;;30.62;40.10
550;BME280;20066;48.764;9.176;2023-08-24T09:02:47;98212.00;;;30.33;39.27
550;BME280;20066;48.764;9.176;2023-08-24T09:05:17;98205.53;;;30.25;40.04
550;BME280;20066;48.764;9.176;2023-08-24T09:07:48;98216.84;;;29.45;40.62
550;BME280;20066;48.764;9.176;2023-08-24T09:10:17;98206.72;;;30.65;39.26
550;BME280;20066;48.764;9.176;2023-08-24T09:12:44;98201.72;;;29.40;40.96
550;BME280;20066;48.764;9.176;2023-08-24T09:15:13;98198.72;;;30.80;39.79
550;BME280;20066;48.764;9.176;2023-08-24T09:17:44;98186.59;;;29.88;40.52
550;BME280;20066;48.764;9.176;2023-08-24T09:20:13;98194.97;;;30.78;38.26
550;BME280;20066;48.764;9.176;2023-08-24T09:22:42;98191.53;;;31.15;37.88
550;BME280;20066;48.764;9.176;2023-08-24T09:25:12;98179.19;;;30.02;39.15
550;BME280;20066;48.764;9.176;2023-08-24T09:27:40;98174.78;;;31.20;37.89
550;BME280;20066;48.764;9.176;2023-08-24T09:30:09;98160.38;;;30.49;38.85
550;BME280;20066;48.764;9.176;2023-08-24T09:32:39;98155.28;;;31.45;36.96
550;BME280;20066;48.764;9.176;2023-08-24T09:35:09;98148.94;;;30.82;38.43
550;BME280;20066;48.764;9.176;2023-08-24T09:37:37;98148.03;;;31.17;38.55
550;BME280;20066;48.764;9.176;2023-08-24T09:40:07;98154.50;;;32.13;36.44
550;BME280;20066;48.764;9.176;2023-08-24T09:42:41;98162.31;;;31.83;37.41
550;BME280;20066;48.764;9.176;2023-08-24T09:45:11;98145.91;;;33.22;34.53
550;BME280;20066;48.764;9.176;2023-08-24T09:47:45;98142.13;;;33.80;35.24
550;BME280;20066;48.764;9.176;2023-08-24T09:50:13;98139.09;;;32.84;34.80
550;BME280;20066;48.764;9.176;2023-08-24T09:52:42;98130.59;;;33.03;34.81
550;BME280;20066;48.764;9.176;2023-08-24T09:55:11;98129.97;;;31.80;36.66
550;BME280;20066;48.764;9.176;2023-08-24T09:57:42;98115.00;;;31.32;37.41
550;BME280;20066;48.764;9.176;2023-08-24T10:00:13;98103.97;;;31.03;38.58
550;BME280;20066;48.764;9.176;2023-08-24T10:02:48;98097.03;;;31.84;37.21
550;BME280;20066;48.764;9.176;2023-08-24T10:05:20;98088.75;;;31.09;38.25
550;BME280;20066;48.764;9.176;2023-08-24T10:08:06;98078.84;;;31.32;39.09
550;BME280;20066;48.764;9.176;2023-08-24T10:10:36;98072.97;;;31.87;37.10
550;BME280;20066;48.764;9.176;2023-08-24T10:13:11;98056.22;;;32.45;36.53
550;BME280;20066;48.764;9.176;2023-08-24T10:15:42;98051.94;;;32.31;37.11
550;BME280;20066;48.764;9.176;2023-08-24T10:18:14;98048.25;;;32.88;36.05
550;BME280;20066;48.764;9.176;2023-08-24T10:20:43;98046.03;;;32.61;36.43
550;BME280;20066;48.764;9.176;2023-08-24T10:23:12;98048.72;;;33.89;34.40
550;BME280;20066;48.764;9.176;2023-08-24T10:25:44;98043.56;;;33.93;34.69
550;BME280;20066;48.764;9.176;2023-08-24T10:28:15;98039.53;;;34.02;35.83
550;BME280;20066;48.764;9.176;2023-08-24T10:30:44;98035.44;;;33.61;35.00
550;BME280;20066;48.764;9.176;2023-08-24T10:33:13;98026.84;;;35.01;34.39
550;BME280;20066;48.764;9.176;2023-08-24T10:35:42;98036.63;;;34.43;34.12
550;BME280;20066;48.764;9.176;2023-08-24T10:38:23;98025.91;;;35.06;32.76
550;BME280;20066;48.764;9.176;2023-08-24T10:40:52;98025.13;;;34.90;33.50
550;BME280;20066;48.764;9.176;2023-08-24T10:43:23;98028.69;;;35.65;32.19
550;BME280;20066;48.764;9.176;2023-08-24T10:45:55;98018.38;;;35.90;34.33
550;BME280;20066;48.764;9.176;2023-08-24T10:48:24;98011.31;;;34.85;35.22
550;BME280;20066;48.764;9.176;2023-08-24T10:51:17;98013.19;;;35.64;32.99
550;BME280;20066;48.764;9.176;2023-08-24T10:53:48;98011.31;;;35.97;32.04
550;BME280;20066;48.764;9.176;2023-08-24T10:56:19;97994.38;;;36.57;32.55
550;BME280;20066;48.764;9.176;2023-08-24T10:59:10;97982.84;;;37.85;29.80
550;BME280;20066;48.764;9.176;2023-08-24T11:01:39;97984.63;;;37.56;31.42
550;BME280;20066;48.764;9.176;2023-08-24T11:04:07;97979.25;;;36.85;31.11
550;BME280;20066;48.764;9.176;2023-08-24T11:06:50;97981.63;;;35.86;33.01
550;BME280;20066;48.764;9.176;2023-08-24T11:09:19;97975.97;;;36.16;33.44
550;BME280;20066;48.764;9.176;2023-08-24T11:11:57;97977.84;;;35.91;33.39
550;BME280;20066;48.764;9.176;2023-08-24T11:14:27;97975.50;;;36.90;32.37
550;BME280;20066;48.764;9.176;2023-08-24T11:16:58;97966.16;;;36.48;31.98
550;BME280;20066;48.764;9.176;2023-08-24T11:19:27;97971.72;;;37.03;31.42
550;BME280;20066;48.764;9.176;2023-08-24T11:21:57;97962.00;;;36.64;32.22
550;BME280;20066;48.764;9.176;2023-08-24T11:24:26;97953.50;;;36.79;32.00
550;BME280;20066;48.764;9.176;2023-08-24T11:26:55;97959.88;;;37.79;30.71
550;BME280;20066;48.764;9.176;2023-08-24T11:29:24;97958.13;;;37.17;31.66
550;BME280;20066;48.764;9.176;2023-08-24T11:31:53;97953.91;;;37.58;31.01
550;BME280;20066;48.764;9.176;2023-08-24T11:34:21;97942.94;;;39.00;28.90
550;BME280;20066;48.764;9.176;2023-08-24T11:36:49;97932.22;;;39.25;28.52
550;BME280;20066;48.764;9.176;2023-08-24T11:39:19;97943.34;;;40.85;27.57
550;BME280;20066;48.764;9.176;2023-08-24T11:42:02;97929.03;;;38.13;30.41
550;BME280;20066;48.764;9.176;2023-08-24T11:44:45;97926.81;;;40.81;26.48
550;BME280;20066;48.764;9.176;2023-08-24T11:47:15;97919.03;;;37.61;30.95
550;BME280;20066;48.764;9.176;2023-08-24T11:49:44;97914.78;;;40.90;28.49
550;BME280;20066;48.764;9.176;2023-08-24T11:52:12;97921.28;;;39.29;28.94
550;BME280;20066;48.764;9.176;2023-08-24T11:54:42;97925.19;;;39.07;29.38
550;BME280;20066;48.764;9.176;2023-08-24T11:57:11;97928.41;;;39.30;28.46
550;BME280;20066;48.764;9.176;2023-08-24T11:59:39;97923.97;;;42.05;25.13
550;BME280;20066;48.764;9.176;2023-08-24T12:02:08;97917.19;;;39.13;30.45
550;BME280;20066;48.764;9.176;2023-08-24T12:04:39;97921.19;;;37.03;31.64
550;BME280;20066;48.764;9.176;2023-08-24T12:07:10;97922.16;;;37.90;30.56
550;BME280;20066;48.764;9.176;2023-08-24T12:09:38;97918.22;;;37.01;31.50
550;BME280;20066;48.764;9.176;2023-08-24T12:12:12;97922.88;;;39.97;27.66
550;BME280;20066;48.764;9.176;2023-08-24T12:14:40;97920.94;;;39.81;28.48
550;BME280;20066;48.764;9.176;2023-08-24T12:17:09;97913.91;;;39.53;27.92
550;BME280;20066;48.764;9.176;2023-08-24T12:22:29;97881.06;;;36.85;32.03
550;BME280;20066;48.764;9.176;2023-08-24T12:24:57;97883.06;;;37.42;30.95
550;BME280;20066;48.764;9.176;2023-08-24T12:27:26;97884.00;;;35.67;33.54
550;BME280;20066;48.764;9.176;2023-08-24T12:29:54;97869.69;;;37.33;31.32
550;BME280;20066;48.764;9.176;2023-08-24T12:32:41;97867.09;;;38.04;30.81
550;BME280;20066;48.764;9.176;2023-08-24T12:35:11;97855.72;;;38.29;29.95
550;BME280;20066;48.764;9.176;2023-08-24T12:37:39;97852.03;;;40.61;26.83
550;BME280;20066;48.764;9.176;2023-08-24T12:40:08;97855.50;;;39.53;27.43
550;BME280;20066;48.764;9.176;2023-08-24T12:42:36;97841.59;;;39.00;28.37
550;BME280;20066;48.764;9.176;2023-08-24T12:45:05;97816.00;;;35.82;33.40
550;BME280;20066;48.764;9.176;2023-08-24T12:47:33;47533.94;;;35.82;33.63
550;BME280;20066;48.764;9.176;2023-08-24T12:50:06;97821.59;;;40.50;27.72
550;BME280;20066;48.764;9.176;2023-08-24T12:52:36;97821.66;;;41.75;25.98
550;BME280;20066;48.764;9.176;2023-08-24T12:55:04;97821.94;;;39.19;28.18
550;BME280;20066;48.764;9.176;2023-08-24T12:57:32;97818.66;;;40.79;26.25
550;BME280;20066;48.764;9.176;2023-08-24T13:00:00;97803.09;;;36.84;30.78
550;BME280;20066;48.764;9.176;2023-08-24T13:02:29;97813.38;;;39.55;27.20
550;BME280;20066;48.764;9.176;2023-08-24T13:05:05;97809.56;;;39.60;28.02
550;BME280;20066;48.764;9.176;2023-08-24T13:07:33;97795.44;;;39.70;28.75
550;BME280;20066;48.764;9.176;2023-08-24T13:10:05;97786.59;;;37.82;30.18
550;BME280;20066;48.764;9.176;2023-08-24T13:12:34;97794.84;;;39.91;26.78
550;BME280;20066;48.764;9.176;2023-08-24T13:15:03;97807.63;;;38.52;28.74
550;BME280;20066;48.764;9.176;2023-08-24T13:17:31;97804.09;;;38.07;29.40
550;BME280;20066;48.764;9.176;2023-08-24T13:19:59;97793.06;;;40.05;26.84
550;BME280;20066;48.764;9.176;2023-08-24T13:22:27;97798.38;;;39.24;28.05
550;BME280;20066;48.764;9.176;2023-08-24T13:24:55;97794.56;;;39.68;28.24
550;BME280;20066;48.764;9.176;2023-08-24T13:27:25;97785.81;;;41.35;25.49
550;BME280;20066;48.764;9.176;2023-08-24T13:29:53;97781.94;;;40.88;25.37
550;BME280;20066;48.764;9.176;2023-08-24T13:32:23;97772.06;;;41.20;25.34
550;BME280;20066;48.764;9.176;2023-08-24T13:34:51;97769.16;;;40.56;26.85
550;BME280;20066;48.764;9.176;2023-08-24T13:37:19;97747.63;;;42.35;23.64
550;BME280;20066;48.764;9.176;2023-08-24T13:39:47;97737.94;;;42.50;23.42